White Cloud, Michigan
Current Conditions -  °F | °C
As of 7:53 PM on Wednesday 22 Oct 2014 (Local Time) from KFFX Reporting Station
Clear Clear  
Wind Chill: 41°   Ceiling: Unl
Heat Index: 41°   Visibility: 10mi
Dew Point: 31°   Wind: 3mph
Humidity: 67%   Direction: 180°S
Pressure: 30.29"   Gusts: NA
Location:  43.55°N, 85.77°W
Report Text: KFFX 222353Z AUTO 18003KT 10SM CLR 05/00 A3029 RMK AO2 T00511005
Loading
Personal Weather Stations






























Interactive Weather Map
Tropical Storm Tracking
New forecast layout! Learn more

10-Day Weather Forecast

Advertisements
Track Severe Weather on mobile